Fort Yukon, Alaska
Current Conditions -  °F | °C
As of 7:36 PM on Tuesday 21 Oct 2014 (Local Time) from PFYU Reporting Station
Overcast Overcast  
Wind Chill: 19°   Ceiling: 6000
Heat Index: 27°   Visibility: 10mi
Dew Point: 21°   Wind: 7mph
Humidity: 80%   Direction: 30°NNE
Pressure: 29.59"   Gusts: NA
Location:  66.57°N, 145.27°W
Report Text: PFYU 220336Z 03006KT 10SM OVC060 M03/M06 A2959 RMK AO1
Loading
Personal Weather Stations






























Interactive Weather Map
Tropical Storm Tracking
New forecast layout! Learn more

10-Day Weather Forecast

Advertisements
Track Severe Weather on mobile